sensor_id;sensor_type;location;lat;lon;timestamp;P1;durP1;ratioP1;P2;durP2;ratioP2
13343;SDS011;6741;48.964;9.406;2023-07-29T00:00:38;7.80;;;7.10;;
13343;SDS011;6741;48.964;9.406;2023-07-29T00:03:06;8.27;;;7.47;;
13343;SDS011;6741;48.964;9.406;2023-07-29T00:05:33;8.15;;;7.43;;
13343;SDS011;6741;48.964;9.406;2023-07-29T00:08:00;7.80;;;7.10;;
13343;SDS011;6741;48.964;9.406;2023-07-29T00:10:27;8.35;;;7.55;;
13343;SDS011;6741;48.964;9.406;2023-07-29T00:12:53;9.43;;;8.52;;
13343;SDS011;6741;48.964;9.406;2023-07-29T00:15:20;9.18;;;8.35;;
13343;SDS011;6741;48.964;9.406;2023-07-29T00:17:47;9.55;;;8.50;;
13343;SDS011;6741;48.964;9.406;2023-07-29T00:20:15;9.27;;;8.38;;
13343;SDS011;6741;48.964;9.406;2023-07-29T00:22:42;11.40;;;8.20;;
13343;SDS011;6741;48.964;9.406;2023-07-29T00:25:09;8.50;;;7.70;;
13343;SDS011;6741;48.964;9.406;2023-07-29T00:27:36;8.77;;;7.53;;
13343;SDS011;6741;48.964;9.406;2023-07-29T00:30:03;8.75;;;7.82;;
13343;SDS011;6741;48.964;9.406;2023-07-29T00:32:30;8.20;;;7.30;;
13343;SDS011;6741;48.964;9.406;2023-07-29T00:34:58;9.32;;;8.27;;
13343;SDS011;6741;48.964;9.406;2023-07-29T00:37:27;8.82;;;7.68;;
13343;SDS011;6741;48.964;9.406;2023-07-29T00:39:54;8.40;;;7.70;;
13343;SDS011;6741;48.964;9.406;2023-07-29T00:42:21;9.35;;;8.15;;
13343;SDS011;6741;48.964;9.406;2023-07-29T00:44:48;8.27;;;7.40;;
13343;SDS011;6741;48.964;9.406;2023-07-29T00:47:15;8.55;;;7.80;;
13343;SDS011;6741;48.964;9.406;2023-07-29T00:49:42;9.25;;;8.13;;
13343;SDS011;6741;48.964;9.406;2023-07-29T00:52:11;9.15;;;8.25;;
13343;SDS011;6741;48.964;9.406;2023-07-29T00:54:39;11.10;;;8.35;;
13343;SDS011;6741;48.964;9.406;2023-07-29T00:57:07;10.45;;;9.32;;
13343;SDS011;6741;48.964;9.406;2023-07-29T00:59:34;11.07;;;8.70;;
13343;SDS011;6741;48.964;9.406;2023-07-29T01:02:02;10.38;;;9.27;;
13343;SDS011;6741;48.964;9.406;2023-07-29T01:04:29;10.00;;;9.00;;
13343;SDS011;6741;48.964;9.406;2023-07-29T01:06:58;9.27;;;8.35;;
13343;SDS011;6741;48.964;9.406;2023-07-29T01:09:48;9.88;;;8.88;;
13343;SDS011;6741;48.964;9.406;2023-07-29T01:12:24;8.52;;;7.65;;
13343;SDS011;6741;48.964;9.406;2023-07-29T01:14:59;8.75;;;7.93;;
13343;SDS011;6741;48.964;9.406;2023-07-29T01:17:36;10.00;;;8.48;;
13343;SDS011;6741;48.964;9.406;2023-07-29T01:20:08;8.90;;;8.00;;
13343;SDS011;6741;48.964;9.406;2023-07-29T01:22:37;8.75;;;7.95;;
13343;SDS011;6741;48.964;9.406;2023-07-29T01:25:06;10.02;;;8.15;;
13343;SDS011;6741;48.964;9.406;2023-07-29T01:27:33;9.10;;;7.90;;
13343;SDS011;6741;48.964;9.406;2023-07-29T01:30:00;8.45;;;7.40;;
13343;SDS011;6741;48.964;9.406;2023-07-29T01:32:29;8.45;;;7.65;;
13343;SDS011;6741;48.964;9.406;2023-07-29T01:35:03;8.60;;;7.65;;
13343;SDS011;6741;48.964;9.406;2023-07-29T01:37:42;8.30;;;7.50;;
13343;SDS011;6741;48.964;9.406;2023-07-29T01:40:15;8.00;;;7.25;;
13343;SDS011;6741;48.964;9.406;2023-07-29T01:42:44;8.07;;;7.38;;
13343;SDS011;6741;48.964;9.406;2023-07-29T01:45:11;7.72;;;7.03;;
13343;SDS011;6741;48.964;9.406;2023-07-29T01:47:38;7.43;;;6.72;;
13343;SDS011;6741;48.964;9.406;2023-07-29T01:50:06;7.75;;;7.05;;
13343;SDS011;6741;48.964;9.406;2023-07-29T01:52:34;8.05;;;6.72;;
13343;SDS011;6741;48.964;9.406;2023-07-29T01:55:01;9.88;;;6.65;;
13343;SDS011;6741;48.964;9.406;2023-07-29T01:57:29;7.97;;;6.00;;
13343;SDS011;6741;48.964;9.406;2023-07-29T01:59:56;6.97;;;6.38;;
13343;SDS011;6741;48.964;9.406;2023-07-29T02:02:23;7.10;;;6.40;;
13343;SDS011;6741;48.964;9.406;2023-07-29T02:04:50;6.70;;;6.00;;
13343;SDS011;6741;48.964;9.406;2023-07-29T02:07:17;5.47;;;4.97;;
13343;SDS011;6741;48.964;9.406;2023-07-29T02:09:44;6.35;;;5.75;;
13343;SDS011;6741;48.964;9.406;2023-07-29T02:12:11;6.57;;;5.60;;
13343;SDS011;6741;48.964;9.406;2023-07-29T02:14:39;5.72;;;5.22;;
13343;SDS011;6741;48.964;9.406;2023-07-29T02:17:06;5.25;;;4.85;;
13343;SDS011;6741;48.964;9.406;2023-07-29T02:19:33;5.63;;;5.13;;
13343;SDS011;6741;48.964;9.406;2023-07-29T02:22:00;5.63;;;5.15;;
13343;SDS011;6741;48.964;9.406;2023-07-29T02:24:27;5.40;;;4.97;;
13343;SDS011;6741;48.964;9.406;2023-07-29T02:26:54;5.85;;;5.28;;
13343;SDS011;6741;48.964;9.406;2023-07-29T02:29:21;5.50;;;4.70;;
13343;SDS011;6741;48.964;9.406;2023-07-29T02:31:49;5.28;;;4.78;;
13343;SDS011;6741;48.964;9.406;2023-07-29T02:34:16;4.82;;;4.43;;
13343;SDS011;6741;48.964;9.406;2023-07-29T02:36:43;4.97;;;4.57;;
13343;SDS011;6741;48.964;9.406;2023-07-29T02:39:10;5.07;;;4.57;;
13343;SDS011;6741;48.964;9.406;2023-07-29T02:41:37;5.25;;;4.75;;
13343;SDS011;6741;48.964;9.406;2023-07-29T02:44:04;5.00;;;4.60;;
13343;SDS011;6741;48.964;9.406;2023-07-29T02:46:31;4.50;;;4.10;;
13343;SDS011;6741;48.964;9.406;2023-07-29T02:49:01;4.82;;;4.43;;
13343;SDS011;6741;48.964;9.406;2023-07-29T02:51:28;4.65;;;4.25;;
13343;SDS011;6741;48.964;9.406;2023-07-29T02:53:55;4.80;;;4.40;;
13343;SDS011;6741;48.964;9.406;2023-07-29T02:56:23;4.88;;;4.43;;
13343;SDS011;6741;48.964;9.406;2023-07-29T02:58:50;4.20;;;3.80;;
13343;SDS011;6741;48.964;9.406;2023-07-29T03:01:17;5.13;;;4.68;;
13343;SDS011;6741;48.964;9.406;2023-07-29T03:03:44;4.80;;;4.30;;
13343;SDS011;6741;48.964;9.406;2023-07-29T03:06:13;4.93;;;4.18;;
13343;SDS011;6741;48.964;9.406;2023-07-29T03:08:41;4.55;;;4.25;;
13343;SDS011;6741;48.964;9.406;2023-07-29T03:11:08;4.45;;;4.05;;
13343;SDS011;6741;48.964;9.406;2023-07-29T03:13:36;4.20;;;3.90;;
13343;SDS011;6741;48.964;9.406;2023-07-29T03:16:06;5.13;;;4.07;;
13343;SDS011;6741;48.964;9.406;2023-07-29T03:18:34;4.18;;;3.88;;
13343;SDS011;6741;48.964;9.406;2023-07-29T03:21:01;4.88;;;4.47;;
13343;SDS011;6741;48.964;9.406;2023-07-29T03:23:30;4.40;;;4.00;;
13343;SDS011;6741;48.964;9.406;2023-07-29T03:25:58;5.18;;;4.03;;
13343;SDS011;6741;48.964;9.406;2023-07-29T03:28:26;4.80;;;4.40;;
13343;SDS011;6741;48.964;9.406;2023-07-29T03:30:55;4.35;;;3.95;;
13343;SDS011;6741;48.964;9.406;2023-07-29T03:33:23;4.20;;;3.80;;
13343;SDS011;6741;48.964;9.406;2023-07-29T03:35:51;3.75;;;3.55;;
13343;SDS011;6741;48.964;9.406;2023-07-29T03:38:18;5.15;;;4.65;;
13343;SDS011;6741;48.964;9.406;2023-07-29T03:40:47;5.10;;;4.15;;
13343;SDS011;6741;48.964;9.406;2023-07-29T03:43:14;6.40;;;4.50;;
13343;SDS011;6741;48.964;9.406;2023-07-29T03:45:41;4.78;;;4.38;;
13343;SDS011;6741;48.964;9.406;2023-07-29T03:48:08;4.78;;;4.38;;
13343;SDS011;6741;48.964;9.406;2023-07-29T03:50:35;4.93;;;4.10;;
13343;SDS011;6741;48.964;9.406;2023-07-29T03:53:02;4.78;;;4.38;;
13343;SDS011;6741;48.964;9.406;2023-07-29T03:55:30;5.05;;;4.25;;
13343;SDS011;6741;48.964;9.406;2023-07-29T03:57:58;4.80;;;4.25;;
13343;SDS011;6741;48.964;9.406;2023-07-29T04:00:25;4.95;;;4.35;;
13343;SDS011;6741;48.964;9.406;2023-07-29T04:02:53;5.18;;;4.68;;
13343;SDS011;6741;48.964;9.406;2023-07-29T04:05:20;5.43;;;4.93;;
13343;SDS011;6741;48.964;9.406;2023-07-29T04:07:46;5.15;;;4.40;;
13343;SDS011;6741;48.964;9.406;2023-07-29T04:10:13;5.00;;;4.50;;
13343;SDS011;6741;48.964;9.406;2023-07-29T04:12:40;5.57;;;4.85;;
13343;SDS011;6741;48.964;9.406;2023-07-29T04:15:09;5.80;;;5.07;;
13343;SDS011;6741;48.964;9.406;2023-07-29T04:17:36;5.40;;;4.80;;
13343;SDS011;6741;48.964;9.406;2023-07-29T04:20:03;5.20;;;4.30;;
13343;SDS011;6741;48.964;9.406;2023-07-29T04:22:30;4.65;;;4.15;;
13343;SDS011;6741;48.964;9.406;2023-07-29T04:24:57;4.75;;;4.25;;
13343;SDS011;6741;48.964;9.406;2023-07-29T04:27:24;5.55;;;4.50;;
13343;SDS011;6741;48.964;9.406;2023-07-29T04:29:51;5.22;;;4.72;;
13343;SDS011;6741;48.964;9.406;2023-07-29T04:32:19;4.40;;;4.05;;
13343;SDS011;6741;48.964;9.406;2023-07-29T04:34:46;5.40;;;4.50;;
13343;SDS011;6741;48.964;9.406;2023-07-29T04:37:13;4.18;;;3.85;;
13343;SDS011;6741;48.964;9.406;2023-07-29T04:39:40;4.63;;;4.22;;
13343;SDS011;6741;48.964;9.406;2023-07-29T04:42:06;5.38;;;4.20;;
13343;SDS011;6741;48.964;9.406;2023-07-29T04:44:33;6.05;;;4.63;;
13343;SDS011;6741;48.964;9.406;2023-07-29T04:47:00;4.88;;;4.05;;
13343;SDS011;6741;48.964;9.406;2023-07-29T04:49:28;5.05;;;4.05;;
13343;SDS011;6741;48.964;9.406;2023-07-29T04:51:55;4.85;;;4.28;;
13343;SDS011;6741;48.964;9.406;2023-07-29T04:54:22;4.47;;;4.07;;
13343;SDS011;6741;48.964;9.406;2023-07-29T04:56:49;5.40;;;3.88;;
13343;SDS011;6741;48.964;9.406;2023-07-29T04:59:16;4.38;;;3.97;;
13343;SDS011;6741;48.964;9.406;2023-07-29T05:01:43;4.05;;;3.72;;
13343;SDS011;6741;48.964;9.406;2023-07-29T05:04:09;4.40;;;4.00;;
13343;SDS011;6741;48.964;9.406;2023-07-29T05:06:38;4.63;;;4.22;;
13343;SDS011;6741;48.964;9.406;2023-07-29T05:09:14;6.82;;;4.30;;
13343;SDS011;6741;48.964;9.406;2023-07-29T05:11:41;4.10;;;3.70;;
13343;SDS011;6741;48.964;9.406;2023-07-29T05:14:10;4.03;;;3.72;;
13343;SDS011;6741;48.964;9.406;2023-07-29T05:16:37;4.07;;;3.78;;
13343;SDS011;6741;48.964;9.406;2023-07-29T05:19:04;4.32;;;3.42;;
13343;SDS011;6741;48.964;9.406;2023-07-29T05:21:31;4.22;;;3.65;;
13343;SDS011;6741;48.964;9.406;2023-07-29T05:23:59;4.15;;;3.85;;
13343;SDS011;6741;48.964;9.406;2023-07-29T05:26:26;4.43;;;4.00;;
13343;SDS011;6741;48.964;9.406;2023-07-29T05:28:53;5.00;;;4.60;;
13343;SDS011;6741;48.964;9.406;2023-07-29T05:31:20;5.18;;;4.22;;
13343;SDS011;6741;48.964;9.406;2023-07-29T05:33:46;4.15;;;3.85;;
13343;SDS011;6741;48.964;9.406;2023-07-29T05:36:12;5.28;;;3.78;;
13343;SDS011;6741;48.964;9.406;2023-07-29T05:38:39;4.95;;;4.50;;
13343;SDS011;6741;48.964;9.406;2023-07-29T05:41:07;4.60;;;4.20;;
13343;SDS011;6741;48.964;9.406;2023-07-29T05:43:34;4.25;;;3.85;;
13343;SDS011;6741;48.964;9.406;2023-07-29T05:46:01;4.70;;;3.45;;
13343;SDS011;6741;48.964;9.406;2023-07-29T05:48:28;4.60;;;4.20;;
13343;SDS011;6741;48.964;9.406;2023-07-29T05:50:55;4.07;;;3.72;;
13343;SDS011;6741;48.964;9.406;2023-07-29T05:53:22;5.00;;;4.18;;
13343;SDS011;6741;48.964;9.406;2023-07-29T05:55:49;4.22;;;3.88;;
13343;SDS011;6741;48.964;9.406;2023-07-29T05:58:17;3.50;;;3.20;;
13343;SDS011;6741;48.964;9.406;2023-07-29T06:00:44;3.20;;;3.00;;
13343;SDS011;6741;48.964;9.406;2023-07-29T06:03:11;4.00;;;3.70;;
13343;SDS011;6741;48.964;9.406;2023-07-29T06:05:38;3.45;;;3.10;;
13343;SDS011;6741;48.964;9.406;2023-07-29T06:08:05;2.83;;;2.60;;
13343;SDS011;6741;48.964;9.406;2023-07-29T06:10:33;2.72;;;2.53;;
13343;SDS011;6741;48.964;9.406;2023-07-29T06:13:00;2.53;;;2.33;;
13343;SDS011;6741;48.964;9.406;2023-07-29T06:15:28;2.53;;;2.40;;
13343;SDS011;6741;48.964;9.406;2023-07-29T06:17:55;2.60;;;2.15;;
13343;SDS011;6741;48.964;9.406;2023-07-29T06:20:22;4.53;;;2.60;;
13343;SDS011;6741;48.964;9.406;2023-07-29T06:22:49;3.05;;;2.10;;
13343;SDS011;6741;48.964;9.406;2023-07-29T06:25:16;2.10;;;2.00;;
13343;SDS011;6741;48.964;9.406;2023-07-29T06:27:43;4.32;;;2.33;;
13343;SDS011;6741;48.964;9.406;2023-07-29T06:30:10;3.45;;;2.38;;
13343;SDS011;6741;48.964;9.406;2023-07-29T06:32:38;2.75;;;2.30;;
13343;SDS011;6741;48.964;9.406;2023-07-29T06:35:05;2.35;;;1.95;;
13343;SDS011;6741;48.964;9.406;2023-07-29T06:37:33;2.28;;;2.03;;
13343;SDS011;6741;48.964;9.406;2023-07-29T06:39:59;2.58;;;2.38;;
13343;SDS011;6741;48.964;9.406;2023-07-29T06:42:26;2.97;;;2.25;;
13343;SDS011;6741;48.964;9.406;2023-07-29T06:44:53;3.75;;;2.00;;
13343;SDS011;6741;48.964;9.406;2023-07-29T06:47:20;2.80;;;2.28;;
13343;SDS011;6741;48.964;9.406;2023-07-29T06:49:48;2.65;;;2.45;;
13343;SDS011;6741;48.964;9.406;2023-07-29T06:52:15;2.75;;;2.40;;
13343;SDS011;6741;48.964;9.406;2023-07-29T06:54:42;3.10;;;2.80;;
13343;SDS011;6741;48.964;9.406;2023-07-29T06:57:09;4.22;;;2.60;;
13343;SDS011;6741;48.964;9.406;2023-07-29T06:59:36;4.13;;;2.45;;
13343;SDS011;6741;48.964;9.406;2023-07-29T07:02:03;3.95;;;2.15;;
13343;SDS011;6741;48.964;9.406;2023-07-29T07:04:30;2.38;;;2.17;;
13343;SDS011;6741;48.964;9.406;2023-07-29T07:06:58;4.15;;;2.83;;
13343;SDS011;6741;48.964;9.406;2023-07-29T07:09:25;3.38;;;2.40;;
13343;SDS011;6741;48.964;9.406;2023-07-29T07:11:52;3.83;;;2.80;;
13343;SDS011;6741;48.964;9.406;2023-07-29T07:14:19;3.80;;;2.60;;
13343;SDS011;6741;48.964;9.406;2023-07-29T07:16:46;3.63;;;2.80;;
13343;SDS011;6741;48.964;9.406;2023-07-29T07:19:13;3.38;;;3.08;;
13343;SDS011;6741;48.964;9.406;2023-07-29T07:21:39;2.63;;;2.42;;
13343;SDS011;6741;48.964;9.406;2023-07-29T07:24:08;3.17;;;2.92;;
13343;SDS011;6741;48.964;9.406;2023-07-29T07:26:34;3.03;;;2.83;;
13343;SDS011;6741;48.964;9.406;2023-07-29T07:29:01;2.83;;;2.63;;
13343;SDS011;6741;48.964;9.406;2023-07-29T07:31:28;3.25;;;3.05;;
13343;SDS011;6741;48.964;9.406;2023-07-29T07:33:59;3.30;;;3.00;;
13343;SDS011;6741;48.964;9.406;2023-07-29T07:36:27;2.83;;;2.47;;
13343;SDS011;6741;48.964;9.406;2023-07-29T07:38:54;2.72;;;2.50;;
13343;SDS011;6741;48.964;9.406;2023-07-29T07:41:22;4.13;;;2.80;;
13343;SDS011;6741;48.964;9.406;2023-07-29T07:43:50;4.03;;;2.58;;
13343;SDS011;6741;48.964;9.406;2023-07-29T07:46:16;3.40;;;2.50;;
13343;SDS011;6741;48.964;9.406;2023-07-29T07:48:43;2.80;;;2.08;;
13343;SDS011;6741;48.964;9.406;2023-07-29T07:51:10;2.70;;;2.50;;
13343;SDS011;6741;48.964;9.406;2023-07-29T07:53:38;3.97;;;2.50;;
13343;SDS011;6741;48.964;9.406;2023-07-29T07:56:05;2.30;;;2.20;;
13343;SDS011;6741;48.964;9.406;2023-07-29T07:58:33;4.75;;;2.80;;
13343;SDS011;6741;48.964;9.406;2023-07-29T08:01:00;2.88;;;2.45;;
13343;SDS011;6741;48.964;9.406;2023-07-29T08:03:28;3.08;;;2.33;;
13343;SDS011;6741;48.964;9.406;2023-07-29T08:05:55;3.10;;;2.80;;
13343;SDS011;6741;48.964;9.406;2023-07-29T08:08:22;2.95;;;2.70;;
13343;SDS011;6741;48.964;9.406;2023-07-29T08:10:49;2.78;;;2.55;;
13343;SDS011;6741;48.964;9.406;2023-07-29T08:13:16;3.50;;;3.03;;
13343;SDS011;6741;48.964;9.406;2023-07-29T08:15:46;3.70;;;2.67;;
13343;SDS011;6741;48.964;9.406;2023-07-29T08:18:13;5.35;;;3.13;;
13343;SDS011;6741;48.964;9.406;2023-07-29T08:20:40;3.60;;;3.22;;
13343;SDS011;6741;48.964;9.406;2023-07-29T08:23:07;2.00;;;1.90;;
13343;SDS011;6741;48.964;9.406;2023-07-29T08:25:34;2.20;;;2.05;;
13343;SDS011;6741;48.964;9.406;2023-07-29T08:28:01;3.10;;;2.53;;
13343;SDS011;6741;48.964;9.406;2023-07-29T08:30:28;2.75;;;2.13;;
13343;SDS011;6741;48.964;9.406;2023-07-29T08:32:56;1.92;;;1.75;;
13343;SDS011;6741;48.964;9.406;2023-07-29T08:35:23;2.75;;;1.85;;
13343;SDS011;6741;48.964;9.406;2023-07-29T08:37:50;2.28;;;1.70;;
13343;SDS011;6741;48.964;9.406;2023-07-29T08:40:17;2.50;;;1.58;;
13343;SDS011;6741;48.964;9.406;2023-07-29T08:42:45;2.50;;;1.90;;
13343;SDS011;6741;48.964;9.406;2023-07-29T08:45:15;2.40;;;2.20;;
13343;SDS011;6741;48.964;9.406;2023-07-29T08:47:43;2.45;;;2.13;;
13343;SDS011;6741;48.964;9.406;2023-07-29T08:50:12;2.80;;;2.60;;
13343;SDS011;6741;48.964;9.406;2023-07-29T08:52:40;2.63;;;2.20;;
13343;SDS011;6741;48.964;9.406;2023-07-29T08:55:09;3.55;;;3.25;;
13343;SDS011;6741;48.964;9.406;2023-07-29T08:57:36;2.40;;;2.22;;
13343;SDS011;6741;48.964;9.406;2023-07-29T09:00:04;2.88;;;1.90;;
13343;SDS011;6741;48.964;9.406;2023-07-29T09:02:32;3.42;;;1.73;;
13343;SDS011;6741;48.964;9.406;2023-07-29T09:04:59;3.20;;;2.17;;
13343;SDS011;6741;48.964;9.406;2023-07-29T09:07:28;2.03;;;1.83;;
13343;SDS011;6741;48.964;9.406;2023-07-29T09:09:56;1.60;;;1.50;;
13343;SDS011;6741;48.964;9.406;2023-07-29T09:12:23;1.75;;;1.60;;
13343;SDS011;6741;48.964;9.406;2023-07-29T09:14:51;1.63;;;1.50;;
13343;SDS011;6741;48.964;9.406;2023-07-29T09:17:19;1.60;;;1.50;;
13343;SDS011;6741;48.964;9.406;2023-07-29T09:19:47;4.32;;;2.10;;
13343;SDS011;6741;48.964;9.406;2023-07-29T09:22:18;2.13;;;1.70;;
13343;SDS011;6741;48.964;9.406;2023-07-29T09:24:46;5.10;;;1.75;;
13343;SDS011;6741;48.964;9.406;2023-07-29T09:27:23;1.55;;;1.45;;
13343;SDS011;6741;48.964;9.406;2023-07-29T09:29:50;2.38;;;1.70;;
13343;SDS011;6741;48.964;9.406;2023-07-29T09:32:17;5.00;;;1.80;;
13343;SDS011;6741;48.964;9.406;2023-07-29T09:34:45;1.88;;;1.23;;
13343;SDS011;6741;48.964;9.406;2023-07-29T09:37:15;2.10;;;1.88;;
13343;SDS011;6741;48.964;9.406;2023-07-29T09:39:43;1.75;;;1.50;;
13343;SDS011;6741;48.964;9.406;2023-07-29T09:42:16;1.60;;;1.50;;
13343;SDS011;6741;48.964;9.406;2023-07-29T09:44:44;1.63;;;1.52;;
13343;SDS011;6741;48.964;9.406;2023-07-29T09:47:18;2.22;;;1.50;;
13343;SDS011;6741;48.964;9.406;2023-07-29T09:49:46;1.45;;;1.35;;
13343;SDS011;6741;48.964;9.406;2023-07-29T09:52:14;3.30;;;1.77;;
13343;SDS011;6741;48.964;9.406;2023-07-29T09:54:42;2.30;;;1.75;;
13343;SDS011;6741;48.964;9.406;2023-07-29T09:57:11;1.67;;;1.58;;
13343;SDS011;6741;48.964;9.406;2023-07-29T09:59:39;1.95;;;1.60;;
13343;SDS011;6741;48.964;9.406;2023-07-29T10:02:06;1.67;;;1.48;;
13343;SDS011;6741;48.964;9.406;2023-07-29T10:04:39;1.83;;;1.60;;
13343;SDS011;6741;48.964;9.406;2023-07-29T10:07:08;2.10;;;1.88;;
13343;SDS011;6741;48.964;9.406;2023-07-29T10:09:36;5.03;;;2.35;;
13343;SDS011;6741;48.964;9.406;2023-07-29T10:12:05;3.17;;;2.17;;
13343;SDS011;6741;48.964;9.406;2023-07-29T10:14:34;2.75;;;1.63;;
13343;SDS011;6741;48.964;9.406;2023-07-29T10:17:03;2.00;;;1.65;;
13343;SDS011;6741;48.964;9.406;2023-07-29T10:19:31;2.83;;;1.75;;
13343;SDS011;6741;48.964;9.406;2023-07-29T10:21:58;2.03;;;1.75;;
13343;SDS011;6741;48.964;9.406;2023-07-29T10:24:28;4.32;;;2.28;;
13343;SDS011;6741;48.964;9.406;2023-07-29T10:26:57;1.80;;;1.70;;
13343;SDS011;6741;48.964;9.406;2023-07-29T10:29:26;5.03;;;2.58;;
13343;SDS011;6741;48.964;9.406;2023-07-29T10:31:58;2.30;;;2.10;;
13343;SDS011;6741;48.964;9.406;2023-07-29T10:34:29;1.92;;;1.77;;
13343;SDS011;6741;48.964;9.406;2023-07-29T10:36:57;1.77;;;1.67;;
13343;SDS011;6741;48.964;9.406;2023-07-29T10:39:25;2.50;;;1.88;;
13343;SDS011;6741;48.964;9.406;2023-07-29T10:41:55;2.28;;;2.08;;
13343;SDS011;6741;48.964;9.406;2023-07-29T10:47:22;2.05;;;1.50;;
13343;SDS011;6741;48.964;9.406;2023-07-29T10:49:51;1.40;;;1.30;;
13343;SDS011;6741;48.964;9.406;2023-07-29T10:55:22;2.63;;;1.60;;
13343;SDS011;6741;48.964;9.406;2023-07-29T10:58:04;2.05;;;1.38;;
13343;SDS011;6741;48.964;9.406;2023-07-29T11:00:33;1.40;;;1.30;;
13343;SDS011;6741;48.964;9.406;2023-07-29T11:03:02;1.42;;;1.38;;
13343;SDS011;6741;48.964;9.406;2023-07-29T11:05:47;1.50;;;1.40;;
13343;SDS011;6741;48.964;9.406;2023-07-29T11:08:18;1.50;;;1.40;;
13343;SDS011;6741;48.964;9.406;2023-07-29T11:11:01;1.60;;;1.50;;
13343;SDS011;6741;48.964;9.406;2023-07-29T11:13:30;2.47;;;1.20;;
13343;SDS011;6741;48.964;9.406;2023-07-29T11:15:58;1.40;;;1.30;;
13343;SDS011;6741;48.964;9.406;2023-07-29T11:18:28;1.40;;;1.30;;
13343;SDS011;6741;48.964;9.406;2023-07-29T11:20:56;1.40;;;1.30;;
13343;SDS011;6741;48.964;9.406;2023-07-29T11:23:27;1.20;;;1.10;;
13343;SDS011;6741;48.964;9.406;2023-07-29T11:25:58;1.25;;;1.10;;
13343;SDS011;6741;48.964;9.406;2023-07-29T11:28:25;1.83;;;1.10;;
13343;SDS011;6741;48.964;9.406;2023-07-29T11:30:53;0.90;;;0.90;;
13343;SDS011;6741;48.964;9.406;2023-07-29T11:33:21;1.02;;;1.00;;
13343;SDS011;6741;48.964;9.406;2023-07-29T11:35:51;0.90;;;0.90;;
13343;SDS011;6741;48.964;9.406;2023-07-29T11:38:19;1.65;;;1.38;;
13343;SDS011;6741;48.964;9.406;2023-07-29T11:40:59;1.20;;;1.10;;
13343;SDS011;6741;48.964;9.406;2023-07-29T11:43:28;1.20;;;1.15;;
13343;SDS011;6741;48.964;9.406;2023-07-29T11:45:55;1.35;;;1.25;;
13343;SDS011;6741;48.964;9.406;2023-07-29T11:48:28;0.88;;;0.88;;
13343;SDS011;6741;48.964;9.406;2023-07-29T11:50:58;1.73;;;0.98;;
13343;SDS011;6741;48.964;9.406;2023-07-29T11:53:26;1.60;;;0.88;;
13343;SDS011;6741;48.964;9.406;2023-07-29T11:55:54;0.80;;;0.80;;
13343;SDS011;6741;48.964;9.406;2023-07-29T11:58:21;1.15;;;1.08;;
13343;SDS011;6741;48.964;9.406;2023-07-29T12:03:15;4.22;;;1.55;;
13343;SDS011;6741;48.964;9.406;2023-07-29T12:05:43;1.10;;;1.10;;
13343;SDS011;6741;48.964;9.406;2023-07-29T12:08:12;1.27;;;1.20;;
13343;SDS011;6741;48.964;9.406;2023-07-29T12:10:39;0.90;;;0.90;;
13343;SDS011;6741;48.964;9.406;2023-07-29T12:13:07;1.55;;;1.20;;
13343;SDS011;6741;48.964;9.406;2023-07-29T12:15:34;2.67;;;1.20;;
13343;SDS011;6741;48.964;9.406;2023-07-29T12:18:03;1.20;;;1.20;;
13343;SDS011;6741;48.964;9.406;2023-07-29T12:20:30;1.33;;;1.23;;
13343;SDS011;6741;48.964;9.406;2023-07-29T12:22:58;3.25;;;1.10;;
13343;SDS011;6741;48.964;9.406;2023-07-29T12:25:28;1.40;;;1.30;;
13343;SDS011;6741;48.964;9.406;2023-07-29T12:27:56;1.40;;;1.30;;
13343;SDS011;6741;48.964;9.406;2023-07-29T12:30:27;1.40;;;1.30;;
13343;SDS011;6741;48.964;9.406;2023-07-29T12:32:54;1.30;;;1.20;;
13343;SDS011;6741;48.964;9.406;2023-07-29T12:35:21;1.40;;;1.30;;
13343;SDS011;6741;48.964;9.406;2023-07-29T12:37:57;1.48;;;1.20;;
13343;SDS011;6741;48.964;9.406;2023-07-29T12:40:25;1.23;;;1.10;;
13343;SDS011;6741;48.964;9.406;2023-07-29T12:42:53;1.33;;;1.23;;
13343;SDS011;6741;48.964;9.406;2023-07-29T12:45:21;1.10;;;0.98;;
13343;SDS011;6741;48.964;9.406;2023-07-29T12:47:51;2.55;;;1.40;;
13343;SDS011;6741;48.964;9.406;2023-07-29T12:50:18;1.35;;;1.27;;
13343;SDS011;6741;48.964;9.406;2023-07-29T12:52:46;1.33;;;1.23;;
13343;SDS011;6741;48.964;9.406;2023-07-29T12:55:12;1.30;;;1.20;;
13343;SDS011;6741;48.964;9.406;2023-07-29T12:57:40;1.48;;;1.38;;
13343;SDS011;6741;48.964;9.406;2023-07-29T13:00:10;1.35;;;1.25;;
13343;SDS011;6741;48.964;9.406;2023-07-29T13:02:38;2.72;;;1.55;;
13343;SDS011;6741;48.964;9.406;2023-07-29T13:05:05;3.92;;;1.60;;
13343;SDS011;6741;48.964;9.406;2023-07-29T13:07:35;1.52;;;1.42;;
13343;SDS011;6741;48.964;9.406;2023-07-29T13:10:02;1.30;;;1.20;;
13343;SDS011;6741;48.964;9.406;2023-07-29T13:12:29;1.77;;;1.67;;
13343;SDS011;6741;48.964;9.406;2023-07-29T13:14:56;2.15;;;1.20;;
13343;SDS011;6741;48.964;9.406;2023-07-29T13:17:24;1.35;;;1.25;;
13343;SDS011;6741;48.964;9.406;2023-07-29T13:19:51;1.42;;;1.33;;
13343;SDS011;6741;48.964;9.406;2023-07-29T13:22:19;1.40;;;1.30;;
13343;SDS011;6741;48.964;9.406;2023-07-29T13:24:46;1.45;;;1.35;;
13343;SDS011;6741;48.964;9.406;2023-07-29T13:27:13;1.38;;;1.27;;
13343;SDS011;6741;48.964;9.406;2023-07-29T13:29:40;2.55;;;1.50;;
13343;SDS011;6741;48.964;9.406;2023-07-29T13:32:08;2.30;;;1.40;;
13343;SDS011;6741;48.964;9.406;2023-07-29T13:34:37;1.50;;;1.40;;
13343;SDS011;6741;48.964;9.406;2023-07-29T13:37:05;1.33;;;1.20;;
13343;SDS011;6741;48.964;9.406;2023-07-29T13:39:32;1.42;;;1.30;;
13343;SDS011;6741;48.964;9.406;2023-07-29T13:41:59;2.03;;;1.40;;
13343;SDS011;6741;48.964;9.406;2023-07-29T13:44:26;2.15;;;1.30;;
13343;SDS011;6741;48.964;9.406;2023-07-29T13:46:52;1.58;;;1.48;;
13343;SDS011;6741;48.964;9.406;2023-07-29T13:49:19;1.27;;;1.20;;
13343;SDS011;6741;48.964;9.406;2023-07-29T13:51:48;1.33;;;1.23;;
13343;SDS011;6741;48.964;9.406;2023-07-29T13:54:15;1.60;;;1.50;;
13343;SDS011;6741;48.964;9.406;2023-07-29T13:56:42;1.48;;;1.38;;
13343;SDS011;6741;48.964;9.406;2023-07-29T13:59:09;1.55;;;1.45;;
13343;SDS011;6741;48.964;9.406;2023-07-29T14:01:36;1.45;;;1.20;;
13343;SDS011;6741;48.964;9.406;2023-07-29T14:04:03;1.55;;;1.40;;
13343;SDS011;6741;48.964;9.406;2023-07-29T14:06:30;1.38;;;1.27;;
13343;SDS011;6741;48.964;9.406;2023-07-29T14:08:58;1.70;;;1.60;;
13343;SDS011;6741;48.964;9.406;2023-07-29T14:11:25;1.58;;;1.48;;
13343;SDS011;6741;48.964;9.406;2023-07-29T14:13:52;2.25;;;1.50;;
13343;SDS011;6741;48.964;9.406;2023-07-29T14:16:18;1.30;;;1.30;;
13343;SDS011;6741;48.964;9.406;2023-07-29T14:18:45;1.73;;;1.60;;
13343;SDS011;6741;48.964;9.406;2023-07-29T14:21:12;1.58;;;1.48;;
13343;SDS011;6741;48.964;9.406;2023-07-29T14:23:39;1.60;;;1.50;;
13343;SDS011;6741;48.964;9.406;2023-07-29T14:26:07;1.50;;;1.40;;
13343;SDS011;6741;48.964;9.406;2023-07-29T14:28:35;1.38;;;1.27;;
13343;SDS011;6741;48.964;9.406;2023-07-29T14:31:02;1.30;;;1.20;;
13343;SDS011;6741;48.964;9.406;2023-07-29T14:33:29;1.27;;;1.17;;
13343;SDS011;6741;48.964;9.406;2023-07-29T14:35:56;1.60;;;1.50;;
13343;SDS011;6741;48.964;9.406;2023-07-29T14:38:23;1.50;;;1.40;;
13343;SDS011;6741;48.964;9.406;2023-07-29T14:40:51;1.42;;;1.33;;
13343;SDS011;6741;48.964;9.406;2023-07-29T14:43:21;2.47;;;1.50;;
13343;SDS011;6741;48.964;9.406;2023-07-29T14:45:47;1.80;;;1.50;;
13343;SDS011;6741;48.964;9.406;2023-07-29T14:48:14;3.25;;;1.55;;
13343;SDS011;6741;48.964;9.406;2023-07-29T14:50:41;1.67;;;1.38;;
13343;SDS011;6741;48.964;9.406;2023-07-29T14:53:08;1.40;;;1.35;;
13343;SDS011;6741;48.964;9.406;2023-07-29T14:55:36;1.70;;;1.60;;
13343;SDS011;6741;48.964;9.406;2023-07-29T14:58:03;1.80;;;1.50;;
13343;SDS011;6741;48.964;9.406;2023-07-29T15:00:31;1.50;;;1.40;;
13343;SDS011;6741;48.964;9.406;2023-07-29T15:02:58;1.65;;;1.48;;
13343;SDS011;6741;48.964;9.406;2023-07-29T15:05:25;2.40;;;1.40;;
13343;SDS011;6741;48.964;9.406;2023-07-29T15:07:52;1.80;;;1.70;;
13343;SDS011;6741;48.964;9.406;2023-07-29T15:10:19;1.35;;;1.25;;
13343;SDS011;6741;48.964;9.406;2023-07-29T15:12:46;1.85;;;1.52;;